createdAt,value
2022-11-12T00:01:20.594Z,25.08
2022-11-12T00:04:10.894Z,28.02
2022-11-12T00:07:00.936Z,21.48
2022-11-12T00:09:50.678Z,24.85
2022-11-12T00:12:40.375Z,21.77
2022-11-12T00:15:30.090Z,22.33
2022-11-12T00:18:19.931Z,18.80
2022-11-12T00:21:09.538Z,16.77
2022-11-12T00:23:59.776Z,47.50
2022-11-12T00:26:50.234Z,23.63
2022-11-12T00:29:40.738Z,49.40
2022-11-12T00:32:30.748Z,15.45
2022-11-12T00:35:20.752Z,15.77
2022-11-12T00:38:10.399Z,16.23
2022-11-12T00:41:03.150Z,15.65
2022-11-12T00:43:52.926Z,13.43
2022-11-12T00:46:42.572Z,14.65
2022-11-12T00:49:32.363Z,16.48
2022-11-12T00:52:22.368Z,19.58
2022-11-12T00:55:12.755Z,13.20
2022-11-12T00:58:02.808Z,14.45
2022-11-12T01:00:52.764Z,15.35
2022-11-12T01:03:43.923Z,13.32
2022-11-12T01:06:34.129Z,12.98
2022-11-12T01:09:24.550Z,14.75
2022-11-12T01:12:14.597Z,16.52
2022-11-12T01:15:04.950Z,16.52
2022-11-12T01:17:55.341Z,18.42
2022-11-12T01:20:45.714Z,17.90
2022-11-12T01:23:37.094Z,15.73
2022-11-12T01:26:29.837Z,14.00
2022-11-12T01:29:20.400Z,11.85
2022-11-12T01:32:11.060Z,14.43
2022-11-12T01:35:01.481Z,16.00
2022-11-12T01:37:51.885Z,12.52
2022-11-12T01:40:42.026Z,16.65
2022-11-12T01:43:32.465Z,21.30
2022-11-12T01:46:30.639Z,19.85
2022-11-12T01:49:41.899Z,16.35
2022-11-12T01:52:45.034Z,22.00
2022-11-12T01:55:39.068Z,23.20
2022-11-12T01:58:31.697Z,22.23
2022-11-12T02:01:21.386Z,19.90
2022-11-12T02:04:12.038Z,13.63
2022-11-12T02:07:03.572Z,12.82
2022-11-12T02:09:54.199Z,14.82
2022-11-12T02:13:05.481Z,13.88
2022-11-12T02:15:56.300Z,15.77
2022-11-12T02:18:46.030Z,23.15
2022-11-12T02:21:35.927Z,11.77
2022-11-12T02:24:35.931Z,13.82
2022-11-12T02:27:26.366Z,13.57
2022-11-12T02:30:16.017Z,11.43
2022-11-12T02:33:06.359Z,10.50
2022-11-12T02:35:56.368Z,15.18
2022-11-12T02:38:46.448Z,14.68
2022-11-12T02:41:36.601Z,13.57
2022-11-12T02:44:26.873Z,11.45
2022-11-12T02:47:17.232Z,28.05
2022-11-12T02:50:08.046Z,33.53
2022-11-12T02:52:57.966Z,14.00
2022-11-12T02:55:47.672Z,14.80
2022-11-12T02:58:37.342Z,12.10
2022-11-12T03:01:27.363Z,17.42
2022-11-12T03:04:17.632Z,14.10
2022-11-12T03:07:08.204Z,10.30
2022-11-12T03:09:58.469Z,10.90
2022-11-12T03:12:48.992Z,22.50
2022-11-12T03:15:39.403Z,63.22
2022-11-12T03:18:30.260Z,26.27
2022-11-12T03:21:20.450Z,23.50
2022-11-12T03:24:13.831Z,13.77
2022-11-12T03:27:03.984Z,17.60
2022-11-12T03:29:54.575Z,23.02
2022-11-12T03:32:44.812Z,11.13
2022-11-12T03:35:35.878Z,11.65
2022-11-12T03:38:27.952Z,30.80
2022-11-12T03:41:19.169Z,13.20
2022-11-12T03:44:09.449Z,11.25
2022-11-12T03:47:04.837Z,12.32
2022-11-12T03:49:55.581Z,8.55
2022-11-12T03:52:54.505Z,7.70
2022-11-12T03:55:44.871Z,8.35
2022-11-12T03:58:35.384Z,11.80
2022-11-12T04:01:31.396Z,7.60
2022-11-12T04:04:21.028Z,7.65
2022-11-12T04:07:30.812Z,38.90
2022-11-12T04:10:20.519Z,7.22
2022-11-12T04:13:29.790Z,13.65
2022-11-12T04:16:41.752Z,8.48
2022-11-12T04:19:51.863Z,7.20
2022-11-12T04:22:41.920Z,8.57
2022-11-12T04:25:51.529Z,8.43
2022-11-12T04:29:03.980Z,6.60
2022-11-12T04:32:01.154Z,7.55
2022-11-12T04:34:58.187Z,9.55
2022-11-12T04:37:49.280Z,7.00
2022-11-12T04:41:07.696Z,6.90
2022-11-12T04:44:25.588Z,8.52
2022-11-12T04:47:18.328Z,8.75
2022-11-12T04:50:24.949Z,6.10
2022-11-12T04:53:18.459Z,8.18
2022-11-12T04:56:26.973Z,7.00
2022-11-12T04:59:20.799Z,6.97
2022-11-12T05:02:13.652Z,6.22
2022-11-12T05:05:05.719Z,11.05
2022-11-12T05:07:59.094Z,9.10
2022-11-12T05:10:54.533Z,6.78
2022-11-12T05:13:44.975Z,8.68
2022-11-12T05:16:42.692Z,6.75
2022-11-12T05:19:42.802Z,7.63
2022-11-12T05:22:45.556Z,7.57
2022-11-12T05:25:48.298Z,8.45
2022-11-12T05:28:43.877Z,6.95
2022-11-12T05:31:37.953Z,9.02
2022-11-12T05:34:31.759Z,7.40
2022-11-12T05:37:21.967Z,8.15
2022-11-12T05:40:12.353Z,8.23
2022-11-12T05:43:02.416Z,6.47
2022-11-12T05:45:52.470Z,8.63
2022-11-12T05:48:42.633Z,7.30
2022-11-12T05:51:32.793Z,8.63
2022-11-12T05:54:22.606Z,14.10
2022-11-12T05:57:12.660Z,7.90
2022-11-12T06:00:03.044Z,6.95
2022-11-12T06:02:53.492Z,11.38
2022-11-12T06:05:43.504Z,7.40
2022-11-12T06:08:33.176Z,7.78
2022-11-12T06:11:23.171Z,8.50
2022-11-12T06:14:13.695Z,8.50
2022-11-12T06:17:04.078Z,7.03
2022-11-12T06:19:53.764Z,8.15
2022-11-12T06:22:43.697Z,6.97
2022-11-12T06:25:33.551Z,10.85
2022-11-12T06:28:23.539Z,7.20
2022-11-12T06:31:13.677Z,6.55
2022-11-12T06:34:04.936Z,6.50
2022-11-12T06:36:54.895Z,9.32
2022-11-12T06:39:46.519Z,9.73
2022-11-12T06:42:46.665Z,7.68
2022-11-12T06:45:40.591Z,7.90
2022-11-12T06:48:44.676Z,8.73
2022-11-12T06:51:59.092Z,7.53
2022-11-12T06:54:52.535Z,7.75
2022-11-12T06:57:47.399Z,9.27
2022-11-12T07:00:44.772Z,11.48
2022-11-12T07:03:50.149Z,9.13
2022-11-12T07:06:47.587Z,6.63
2022-11-12T07:09:40.821Z,7.22
2022-11-12T07:12:36.591Z,7.85
2022-11-12T07:18:32.132Z,10.70
2022-11-12T07:21:36.715Z,7.97
2022-11-12T07:24:30.009Z,6.68
2022-11-12T07:27:22.647Z,7.55
2022-11-12T07:30:22.382Z,7.28
2022-11-12T07:33:12.633Z,9.35
2022-11-12T07:36:13.346Z,7.53
2022-11-12T07:39:06.870Z,6.93
2022-11-12T07:42:02.715Z,6.80
2022-11-12T07:44:59.526Z,8.15
2022-11-12T07:51:33.558Z,10.30
2022-11-12T07:54:32.860Z,7.32
2022-11-12T07:57:29.015Z,7.20
2022-11-12T08:00:34.189Z,11.73
2022-11-12T08:03:28.374Z,8.13
2022-11-12T08:06:22.729Z,7.13
2022-11-12T08:09:17.361Z,13.48
2022-11-12T08:12:08.113Z,8.13
2022-11-12T08:15:07.386Z,7.80
2022-11-12T08:18:10.615Z,9.93
2022-11-12T08:21:18.621Z,10.50
2022-11-12T08:24:12.951Z,9.10
2022-11-12T08:27:06.273Z,6.60
2022-11-12T08:30:03.732Z,7.70
2022-11-12T08:33:17.757Z,7.90
2022-11-12T08:36:13.963Z,9.10
2022-11-12T08:39:22.060Z,7.43
2022-11-12T08:42:12.261Z,17.05
2022-11-12T08:45:07.419Z,8.13
2022-11-12T08:48:11.225Z,10.05
2022-11-12T08:51:15.036Z,11.38
2022-11-12T08:54:05.715Z,8.20
2022-11-12T08:57:04.723Z,8.82
2022-11-12T08:59:57.971Z,9.57
2022-11-12T09:02:59.574Z,45.78
2022-11-12T09:05:54.899Z,18.88
2022-11-12T09:08:49.832Z,7.30
2022-11-12T09:11:45.679Z,9.68
2022-11-12T09:14:47.564Z,7.38
2022-11-12T09:17:46.577Z,9.80
2022-11-12T09:20:37.847Z,7.20
2022-11-12T09:23:47.551Z,9.63
2022-11-12T09:26:40.310Z,8.13
2022-11-12T09:29:37.384Z,6.45
2022-11-12T09:32:33.442Z,11.45
2022-11-12T09:35:28.054Z,6.95
2022-11-12T09:38:23.390Z,10.43
2022-11-12T09:41:56.590Z,10.23
2022-11-12T09:48:12.459Z,7.57
2022-11-12T09:51:33.304Z,8.60
2022-11-12T09:54:34.540Z,11.35
2022-11-12T09:57:33.125Z,9.30
2022-11-12T10:00:33.691Z,12.20
2022-11-12T10:07:29.134Z,9.38
2022-11-12T10:10:58.574Z,10.50
2022-11-12T10:14:17.763Z,9.63
2022-11-12T10:20:59.218Z,14.43
2022-11-12T10:24:00.462Z,18.42
2022-11-12T10:26:54.178Z,22.58
2022-11-12T10:30:09.578Z,17.00
2022-11-12T10:33:05.568Z,13.20
2022-11-12T10:39:04.715Z,16.50
2022-11-12T10:42:13.802Z,18.52
2022-11-12T10:45:24.166Z,26.75
2022-11-12T10:48:37.537Z,45.92
2022-11-12T10:51:33.219Z,44.88
2022-11-12T10:54:56.558Z,39.80
2022-11-12T10:57:56.023Z,29.42
2022-11-12T11:01:33.571Z,21.40
2022-11-12T11:04:38.979Z,18.83
2022-11-12T11:07:36.039Z,14.20
2022-11-12T11:10:37.557Z,18.50
2022-11-12T11:13:36.548Z,15.02
2022-11-12T11:16:33.019Z,17.88
2022-11-12T11:19:29.572Z,20.23
2022-11-12T11:22:42.709Z,21.83
2022-11-12T11:25:49.584Z,19.60
2022-11-12T11:29:04.277Z,20.45
2022-11-12T11:32:37.195Z,38.60
2022-11-12T11:36:13.559Z,52.28
2022-11-12T11:39:33.115Z,48.78
2022-11-12T11:43:08.918Z,40.50
2022-11-12T11:46:38.379Z,39.33
2022-11-12T11:50:06.618Z,33.03
2022-11-12T12:00:28.363Z,43.88
2022-11-12T12:03:49.908Z,34.38
2022-11-12T12:11:06.881Z,40.60
2022-11-12T12:14:35.519Z,35.78
2022-11-12T12:17:58.857Z,37.00
2022-11-12T12:21:24.834Z,32.80
2022-11-12T12:24:27.408Z,31.75
2022-11-12T12:27:36.852Z,34.75
2022-11-12T12:30:34.145Z,42.85
2022-11-12T12:33:37.596Z,44.08
2022-11-12T12:36:50.038Z,49.25
2022-11-12T12:40:06.921Z,48.80
2022-11-12T12:43:24.130Z,46.47
2022-11-12T12:46:24.704Z,48.97
2022-11-12T12:49:37.973Z,35.83
2022-11-12T12:52:29.971Z,40.08
2022-11-12T12:55:42.238Z,42.35
2022-11-12T12:58:43.337Z,48.72
2022-11-12T13:01:36.629Z,43.88
2022-11-12T13:05:00.367Z,41.03
2022-11-12T13:07:53.276Z,41.08
2022-11-12T13:10:54.363Z,40.58
2022-11-12T13:13:47.122Z,42.20
2022-11-12T13:17:17.044Z,47.90
2022-11-12T13:20:41.883Z,46.72
2022-11-12T13:24:18.424Z,300.90
2022-11-12T13:27:14.720Z,48.90
2022-11-12T13:30:07.048Z,58.95
2022-11-12T13:33:11.888Z,75.30
2022-11-12T13:36:36.298Z,62.30
2022-11-12T13:39:27.949Z,53.30
2022-11-12T13:42:41.258Z,144.70
2022-11-12T13:45:38.139Z,235.90
2022-11-12T13:51:48.664Z,301.45
2022-11-12T13:54:42.576Z,274.70
2022-11-12T13:57:37.070Z,287.40
2022-11-12T14:00:34.544Z,288.58
2022-11-12T14:03:29.679Z,264.27
2022-11-12T14:06:43.173Z,153.90
2022-11-12T14:10:09.176Z,243.10
2022-11-12T14:13:38.819Z,235.93
2022-11-12T14:17:05.652Z,234.98
2022-11-12T14:20:35.963Z,227.35
2022-11-12T14:23:27.992Z,197.65
2022-11-12T14:26:45.422Z,204.27
2022-11-12T14:29:39.884Z,253.05
2022-11-12T14:32:43.300Z,411.67
2022-11-12T14:35:46.835Z,406.40
2022-11-12T14:39:00.421Z,325.48
2022-11-12T14:41:57.246Z,276.33
2022-11-12T14:44:47.857Z,267.15
2022-11-12T14:47:39.842Z,263.10
2022-11-12T14:50:40.418Z,273.02
2022-11-12T14:53:56.754Z,233.27
2022-11-12T14:56:51.608Z,214.80
2022-11-12T14:59:43.223Z,197.75
2022-11-12T15:02:53.867Z,196.35
2022-11-12T15:06:10.898Z,146.38
2022-11-12T15:09:09.972Z,130.25
2022-11-12T15:12:02.625Z,118.90
2022-11-12T15:14:57.691Z,116.13
2022-11-12T15:17:48.068Z,109.95
2022-11-12T15:20:38.763Z,100.43
2022-11-12T15:23:32.651Z,90.82
2022-11-12T15:26:43.858Z,127.63
2022-11-12T15:29:38.582Z,125.57
2022-11-12T15:32:39.432Z,186.50
2022-11-12T15:35:40.907Z,252.48
2022-11-12T15:38:41.441Z,277.05
2022-11-12T15:41:35.221Z,207.90
2022-11-12T15:44:26.339Z,201.07
2022-11-12T15:47:24.892Z,177.10
2022-11-12T15:50:26.025Z,190.15
2022-11-12T15:53:21.930Z,175.23
2022-11-12T15:56:18.251Z,149.20
2022-11-12T15:59:09.079Z,152.52
2022-11-12T16:02:00.644Z,196.98
2022-11-12T16:04:51.412Z,221.57
2022-11-12T16:07:42.870Z,234.35
2022-11-12T16:10:34.350Z,224.05
2022-11-12T16:13:37.332Z,217.25
2022-11-12T16:16:27.217Z,210.60
2022-11-12T16:19:18.407Z,195.60
2022-11-12T16:22:14.183Z,152.48
2022-11-12T16:25:07.255Z,125.07
2022-11-12T16:28:01.955Z,85.57
2022-11-12T16:30:53.793Z,81.78
2022-11-12T16:33:46.379Z,73.18
2022-11-12T16:36:38.192Z,65.72
2022-11-12T16:39:28.913Z,58.80
2022-11-12T16:42:19.288Z,55.80
2022-11-12T16:45:09.510Z,49.47
2022-11-12T16:48:01.555Z,49.15
2022-11-12T16:50:52.182Z,40.00
2022-11-12T16:53:43.048Z,46.20
2022-11-12T16:56:33.260Z,48.55
2022-11-12T16:59:24.020Z,39.25
2022-11-12T17:02:17.927Z,35.42
2022-11-12T17:05:12.664Z,39.85
2022-11-12T17:08:04.841Z,40.17
2022-11-12T17:10:54.763Z,32.80
2022-11-12T17:13:49.937Z,32.72
2022-11-12T17:16:39.898Z,38.95
2022-11-12T17:19:30.904Z,34.40
2022-11-12T17:22:21.931Z,41.58
2022-11-12T17:25:11.802Z,36.03
2022-11-12T17:28:02.603Z,35.70
2022-11-12T17:30:55.878Z,32.97
2022-11-12T17:33:52.650Z,33.80
2022-11-12T17:36:44.044Z,32.28
2022-11-12T17:39:34.129Z,29.08
2022-11-12T17:42:25.613Z,30.83
2022-11-12T17:45:16.382Z,27.83
2022-11-12T17:48:09.360Z,24.17
2022-11-12T17:51:21.933Z,24.52
2022-11-12T17:54:12.653Z,27.58
2022-11-12T17:57:03.656Z,26.08
2022-11-12T17:59:53.656Z,31.95
2022-11-12T18:02:44.103Z,26.15
2022-11-12T18:05:34.886Z,28.17
2022-11-12T18:08:29.640Z,24.00
2022-11-12T18:11:19.901Z,29.52
2022-11-12T18:14:11.298Z,26.67
2022-11-12T18:17:03.037Z,34.05
2022-11-12T18:19:53.460Z,27.95
2022-11-12T18:22:45.056Z,31.52
2022-11-12T18:25:38.037Z,24.63
2022-11-12T18:28:29.239Z,27.52
2022-11-12T18:31:22.441Z,24.75
2022-11-12T18:34:17.004Z,25.77
2022-11-12T18:37:07.154Z,29.38
2022-11-12T18:39:57.002Z,31.55
2022-11-12T18:42:46.864Z,28.42
2022-11-12T18:45:37.234Z,29.30
2022-11-12T18:48:28.304Z,30.27
2022-11-12T18:51:20.809Z,28.77
2022-11-12T18:54:11.446Z,31.35
2022-11-12T18:57:01.739Z,31.45
2022-11-12T18:59:53.712Z,34.22
2022-11-12T19:02:44.869Z,32.75
2022-11-12T19:05:35.840Z,28.20
2022-11-12T19:08:28.319Z,29.05
2022-11-12T19:11:20.628Z,35.42
2022-11-12T19:14:11.143Z,37.00
2022-11-12T19:17:01.729Z,40.30
2022-11-12T19:19:52.347Z,42.00
2022-11-12T19:22:42.982Z,41.65
2022-11-12T19:25:33.262Z,42.13
2022-11-12T19:28:23.548Z,41.63
2022-11-12T19:31:20.837Z,39.28
2022-11-12T19:34:11.284Z,43.53
2022-11-12T19:40:13.017Z,39.47
2022-11-12T19:43:03.320Z,43.28
2022-11-12T19:45:56.235Z,41.17
2022-11-12T19:48:46.699Z,32.83
2022-11-12T19:51:36.950Z,35.20
2022-11-12T19:54:27.649Z,34.28
2022-11-12T19:57:17.489Z,32.85
2022-11-12T20:00:08.493Z,33.58
2022-11-12T20:02:59.714Z,35.63
2022-11-12T20:05:50.259Z,37.72
2022-11-12T20:08:40.489Z,34.10
2022-11-12T20:11:30.303Z,37.40
2022-11-12T20:14:20.337Z,33.83
2022-11-12T20:17:10.917Z,30.88
2022-11-12T20:20:01.307Z,36.40
2022-11-12T20:22:51.235Z,30.88
2022-11-12T20:25:41.482Z,30.20
2022-11-12T20:28:31.467Z,29.58
2022-11-12T20:31:22.759Z,33.53
2022-11-12T20:34:14.775Z,30.92
2022-11-12T20:37:05.084Z,27.45
2022-11-12T20:39:55.299Z,35.22
2022-11-12T20:42:45.727Z,27.70
2022-11-12T20:45:36.844Z,31.85
2022-11-12T20:48:27.663Z,29.08
2022-11-12T20:51:24.357Z,28.27
2022-11-12T20:54:15.416Z,26.08
2022-11-12T20:57:06.227Z,28.52
2022-11-12T20:59:56.502Z,29.70
2022-11-12T21:02:46.670Z,24.88
2022-11-12T21:05:37.037Z,27.58
2022-11-12T21:08:27.035Z,27.85
2022-11-12T21:11:20.573Z,28.75
2022-11-12T21:14:12.390Z,28.20
2022-11-12T21:17:02.387Z,30.52
2022-11-12T21:19:52.383Z,25.85
2022-11-12T21:22:42.752Z,26.92
2022-11-12T21:25:36.409Z,27.75
2022-11-12T21:28:27.145Z,30.15
2022-11-12T21:31:20.499Z,31.60
2022-11-12T21:34:12.593Z,29.08
2022-11-12T21:37:04.116Z,25.70
2022-11-12T21:39:54.306Z,28.75
2022-11-12T21:42:48.130Z,31.75
2022-11-12T21:45:38.651Z,27.20
2022-11-12T21:48:29.359Z,25.55
2022-11-12T21:51:20.407Z,24.90
2022-11-12T21:54:10.803Z,29.58
2022-11-12T21:57:00.774Z,30.95
2022-11-12T21:59:51.171Z,24.80
2022-11-12T22:02:41.263Z,27.25
2022-11-12T22:05:31.363Z,27.85
2022-11-12T22:08:21.372Z,27.80
2022-11-12T22:11:14.860Z,27.25
2022-11-12T22:14:04.834Z,23.88
2022-11-12T22:16:55.124Z,26.27
2022-11-12T22:19:45.264Z,26.02
2022-11-12T22:22:35.303Z,37.92
2022-11-12T22:25:24.899Z,28.17
2022-11-12T22:28:14.522Z,29.67
2022-11-12T22:31:13.611Z,29.73
2022-11-12T22:34:04.808Z,24.48
2022-11-12T22:36:54.779Z,22.40
2022-11-12T22:39:44.879Z,27.55
2022-11-12T22:42:35.294Z,25.75
2022-11-12T22:45:25.370Z,28.55
2022-11-12T22:48:15.381Z,25.65
2022-11-12T22:51:07.317Z,24.50
2022-11-12T22:54:02.326Z,26.60
2022-11-12T22:56:52.388Z,27.65
2022-11-12T22:59:42.767Z,66.43
2022-11-12T23:02:33.282Z,27.50
2022-11-12T23:05:23.858Z,29.05
2022-11-12T23:08:14.482Z,30.83
2022-11-12T23:11:10.509Z,33.28
2022-11-12T23:14:00.782Z,29.90
2022-11-12T23:16:51.468Z,30.38
2022-11-12T23:19:41.477Z,27.00
2022-11-12T23:22:31.720Z,29.27
2022-11-12T23:25:21.851Z,30.20
2022-11-12T23:28:11.930Z,30.25
2022-11-12T23:31:02.637Z,24.80
2022-11-12T23:33:55.507Z,31.40
2022-11-12T23:36:46.055Z,30.35
2022-11-12T23:39:36.452Z,33.08
2022-11-12T23:42:27.015Z,40.13
2022-11-12T23:45:17.518Z,42.50
2022-11-12T23:48:07.679Z,52.90
2022-11-12T23:51:14.879Z,49.28
2022-11-12T23:54:05.493Z,39.67
2022-11-12T23:56:55.283Z,39.72
2022-11-12T23:59:45.504Z,37.17
